createdAt,value
2023-05-20T00:00:13.900Z,1009.09
2023-05-20T00:01:11.602Z,1009.08
2023-05-20T00:02:14.226Z,1009.09
2023-05-20T00:03:12.025Z,1009.11
2023-05-20T00:04:12.574Z,1009.04
2023-05-20T00:05:14.302Z,1009.05
2023-05-20T00:06:14.929Z,1009.07
2023-05-20T00:07:13.653Z,1009.13
2023-05-20T00:08:12.791Z,1009.09
2023-05-20T00:09:13.988Z,1009.11
2023-05-20T00:10:13.157Z,1009.11
2023-05-20T00:11:14.253Z,1009.08
2023-05-20T00:12:13.399Z,1009.08
2023-05-20T00:13:13.708Z,1009.04
2023-05-20T00:14:13.916Z,1009.03
2023-05-20T00:15:14.102Z,1009.03
2023-05-20T00:16:15.253Z,1009.07
2023-05-20T00:17:16.902Z,1009.06
2023-05-20T00:18:15.504Z,1009.04
2023-05-20T00:19:14.769Z,1009.05
2023-05-20T00:21:26.754Z,1009.00
2023-05-20T00:22:28.383Z,1008.97
2023-05-20T00:23:29.062Z,1008.94
2023-05-20T00:24:28.291Z,1009.00
2023-05-20T00:25:29.134Z,1009.04
2023-05-20T00:26:26.830Z,1009.02
2023-05-20T00:27:28.975Z,1008.99
2023-05-20T00:28:27.137Z,1008.99
2023-05-20T00:29:28.295Z,1009.00
2023-05-20T00:30:27.540Z,1009.02
2023-05-20T00:31:31.712Z,1009.01
2023-05-20T00:32:27.746Z,1009.04
2023-05-20T00:33:27.999Z,1008.99
2023-05-20T00:34:29.675Z,1008.99
2023-05-20T00:35:29.535Z,1008.98
2023-05-20T00:36:31.194Z,1009.00
2023-05-20T00:37:28.904Z,1008.97
2023-05-20T00:38:33.886Z,1008.95
2023-05-20T00:39:30.851Z,1008.98
2023-05-20T00:40:29.048Z,1008.91
2023-05-20T00:41:29.171Z,1008.94
2023-05-20T00:42:31.942Z,1008.95
2023-05-20T00:43:31.623Z,1008.90
2023-05-20T00:44:29.756Z,1008.95
2023-05-20T00:45:31.791Z,1008.92
2023-05-20T00:46:34.982Z,1008.91
2023-05-20T00:47:30.229Z,1008.95
2023-05-20T00:48:30.419Z,1008.90
2023-05-20T00:49:33.057Z,1008.96
2023-05-20T00:50:34.198Z,1008.90
2023-05-20T00:51:31.880Z,1008.88
2023-05-20T00:52:33.492Z,1008.83
2023-05-20T00:53:33.633Z,1008.87
2023-05-20T00:54:31.307Z,1008.77
2023-05-20T00:55:32.740Z,1008.83
2023-05-20T00:56:36.353Z,1008.79
2023-05-20T00:57:31.525Z,1008.84
2023-05-20T00:58:31.916Z,1008.81
2023-05-20T00:59:32.171Z,1008.79
2023-05-20T01:00:34.835Z,1008.74
2023-05-20T01:01:32.602Z,1008.81
2023-05-20T01:02:35.384Z,1008.79
2023-05-20T01:03:35.728Z,1008.81
2023-05-20T01:04:46.411Z,1008.81
2023-05-20T01:05:35.164Z,1008.79
2023-05-20T01:06:36.109Z,1008.79
2023-05-20T01:07:33.786Z,1008.78
2023-05-20T01:08:33.967Z,1008.73
2023-05-20T01:09:34.138Z,1008.80
2023-05-20T01:10:34.319Z,1008.82
2023-05-20T01:11:34.480Z,1008.79
2023-05-20T01:12:34.986Z,1008.78
2023-05-20T01:13:35.127Z,1008.78
2023-05-20T01:14:38.018Z,1008.84
2023-05-20T01:15:36.915Z,1008.82
2023-05-20T01:16:35.949Z,1008.87
2023-05-20T01:17:38.701Z,1008.83
2023-05-20T01:18:38.861Z,1008.83
2023-05-20T01:19:38.086Z,1008.87
2023-05-20T01:20:36.738Z,1008.87
2023-05-20T01:21:38.122Z,1008.91
2023-05-20T01:22:38.451Z,1008.90
2023-05-20T01:23:37.635Z,1008.93
2023-05-20T01:24:40.550Z,1008.93
2023-05-20T01:25:41.897Z,1008.86
2023-05-20T01:26:41.006Z,1008.92
2023-05-20T01:27:38.975Z,1008.90
2023-05-20T01:28:39.141Z,1008.89
2023-05-20T01:29:41.765Z,1008.82
2023-05-20T01:30:41.257Z,1008.88
2023-05-20T01:31:42.919Z,1008.83
2023-05-20T01:32:41.533Z,1008.85
2023-05-20T01:33:42.767Z,1008.83
2023-05-20T01:34:43.888Z,1008.79
2023-05-20T01:35:41.637Z,1008.84
2023-05-20T01:36:40.747Z,1008.77
2023-05-20T01:37:40.967Z,1008.77
2023-05-20T01:38:41.092Z,1008.77
2023-05-20T01:39:41.853Z,1008.78
2023-05-20T01:40:41.566Z,1008.76
2023-05-20T01:41:43.224Z,1008.74
2023-05-20T01:42:43.102Z,1008.73
2023-05-20T01:43:44.722Z,1008.73
2023-05-20T01:44:42.365Z,1008.74
2023-05-20T01:45:43.420Z,1008.81
2023-05-20T01:46:45.086Z,1008.77
2023-05-20T01:47:44.796Z,1008.76
2023-05-20T01:48:43.014Z,1008.70
2023-05-20T01:49:45.623Z,1008.73
2023-05-20T01:50:43.350Z,1008.65
2023-05-20T01:51:43.539Z,1008.67
2023-05-20T01:52:44.247Z,1008.73
2023-05-20T01:53:46.384Z,1008.72
2023-05-20T01:54:44.913Z,1008.69
2023-05-20T01:55:44.084Z,1008.69
2023-05-20T01:56:46.719Z,1008.74
2023-05-20T01:57:44.420Z,1008.71
2023-05-20T01:58:44.576Z,1008.71
2023-05-20T01:59:45.287Z,1008.72
2023-05-20T02:00:46.219Z,1008.73
2023-05-20T02:01:46.952Z,1008.75
2023-05-20T02:02:49.225Z,1008.73
2023-05-20T02:03:47.822Z,1008.69
2023-05-20T02:04:48.679Z,1008.74
2023-05-20T02:05:46.434Z,1008.77
2023-05-20T02:06:46.616Z,1008.78
2023-05-20T02:07:46.780Z,1008.69
2023-05-20T02:08:49.365Z,1008.76
2023-05-20T02:09:47.023Z,1008.75
2023-05-20T02:10:47.216Z,1008.67
2023-05-20T02:11:47.393Z,1008.70
2023-05-20T02:12:50.466Z,1008.69
2023-05-20T02:13:50.178Z,1008.70
2023-05-20T02:14:47.955Z,1008.64
2023-05-20T02:15:52.226Z,1008.68
2023-05-20T02:16:48.626Z,1008.65
2023-05-20T02:17:48.481Z,1008.65
2023-05-20T02:18:50.085Z,1008.60
2023-05-20T02:19:51.227Z,1008.63
2023-05-20T02:20:51.957Z,1008.60
2023-05-20T02:21:49.132Z,1008.62
2023-05-20T02:22:49.579Z,1008.65
2023-05-20T02:23:49.730Z,1008.60
2023-05-20T02:24:53.388Z,1008.62
2023-05-20T02:25:50.070Z,1008.55
2023-05-20T02:26:50.178Z,1008.61
2023-05-20T02:27:50.409Z,1008.59
2023-05-20T02:28:50.570Z,1008.58
2023-05-20T02:29:53.485Z,1008.54
2023-05-20T02:30:51.072Z,1008.54
2023-05-20T02:31:53.643Z,1008.53
2023-05-20T02:32:53.985Z,1008.55
2023-05-20T02:33:54.148Z,1008.49
2023-05-20T02:34:55.450Z,1008.54
2023-05-20T02:35:54.567Z,1008.50
2023-05-20T02:36:52.189Z,1008.53
2023-05-20T02:37:55.923Z,1008.45
2023-05-20T02:38:54.586Z,1008.46
2023-05-20T02:39:54.761Z,1008.46
2023-05-20T02:40:52.903Z,1008.40
2023-05-20T02:41:57.924Z,1008.40
2023-05-20T02:42:55.597Z,1008.39
2023-05-20T02:43:53.208Z,1008.41
2023-05-20T02:44:55.836Z,1008.45
2023-05-20T02:45:54.428Z,1008.39
2023-05-20T02:46:55.778Z,1008.50
2023-05-20T02:47:55.897Z,1008.46
2023-05-20T02:48:56.502Z,1008.47
2023-05-20T02:49:56.685Z,1008.48
2023-05-20T02:50:54.376Z,1008.53
2023-05-20T02:51:54.569Z,1008.53
2023-05-20T02:52:57.215Z,1008.50
2023-05-20T02:53:57.349Z,1008.53
2023-05-20T02:54:57.436Z,1008.54
2023-05-20T02:55:56.073Z,1008.53
2023-05-20T02:56:55.193Z,1008.50
2023-05-20T02:57:55.330Z,1008.48
2023-05-20T02:58:56.450Z,1008.50
2023-05-20T02:59:59.010Z,1008.49
2023-05-20T03:00:55.668Z,1008.48
2023-05-20T03:01:56.105Z,1008.54
2023-05-20T03:02:57.664Z,1008.50
2023-05-20T03:03:58.277Z,1008.51
2023-05-20T03:05:13.809Z,1008.53
2023-05-20T03:05:57.533Z,1008.49
2023-05-20T03:06:59.311Z,1008.43
2023-05-20T03:07:56.956Z,1008.46
2023-05-20T03:08:57.177Z,1008.46
2023-05-20T03:09:57.313Z,1008.40
2023-05-20T03:10:57.423Z,1008.40
2023-05-20T03:11:57.609Z,1008.44
2023-05-20T03:13:00.218Z,1008.42
2023-05-20T03:14:00.305Z,1008.40
2023-05-20T03:14:57.943Z,1008.41
2023-05-20T03:15:58.369Z,1008.47
2023-05-20T03:16:58.660Z,1008.44
2023-05-20T03:18:01.276Z,1008.38
2023-05-20T03:19:01.388Z,1008.39
2023-05-20T03:19:59.079Z,1008.38
2023-05-20T03:20:59.215Z,1008.44
2023-05-20T03:21:59.502Z,1008.35
2023-05-20T03:22:59.738Z,1008.41
2023-05-20T03:23:59.870Z,1008.42
2023-05-20T03:25:00.031Z,1008.42
2023-05-20T03:26:00.740Z,1008.43
2023-05-20T03:27:02.933Z,1008.43
2023-05-20T03:28:02.516Z,1008.48
2023-05-20T03:29:04.653Z,1008.47
2023-05-20T03:30:03.659Z,1008.46
2023-05-20T03:31:03.826Z,1008.43
2023-05-20T03:32:03.505Z,1008.48
2023-05-20T03:33:01.209Z,1008.42
2023-05-20T03:34:01.356Z,1008.41
2023-05-20T03:35:04.111Z,1008.44
2023-05-20T03:36:01.835Z,1008.41
2023-05-20T03:37:04.953Z,1008.39
2023-05-20T03:38:02.065Z,1008.34
2023-05-20T03:39:05.320Z,1008.42
2023-05-20T03:40:04.963Z,1008.37
2023-05-20T03:41:02.669Z,1008.39
2023-05-20T03:42:06.145Z,1008.33
2023-05-20T03:43:03.749Z,1008.35
2023-05-20T03:44:02.839Z,1008.32
2023-05-20T03:45:02.967Z,1008.31
2023-05-20T03:46:03.198Z,1008.37
2023-05-20T03:47:06.322Z,1008.37
2023-05-20T03:48:03.997Z,1008.38
2023-05-20T03:49:04.710Z,1008.29
2023-05-20T03:50:06.951Z,1008.34
2023-05-20T03:51:06.565Z,1008.34
2023-05-20T03:52:06.638Z,1008.31
2023-05-20T03:53:06.290Z,1008.26
2023-05-20T03:54:06.965Z,1008.28
2023-05-20T03:55:04.652Z,1008.28
2023-05-20T03:56:04.786Z,1008.32
2023-05-20T03:57:04.889Z,1008.28
2023-05-20T03:58:04.967Z,1008.25
2023-05-20T03:59:07.079Z,1008.29
2023-05-20T04:00:05.826Z,1008.26
2023-05-20T04:01:05.328Z,1008.24
2023-05-20T04:02:06.246Z,1008.29
2023-05-20T04:03:08.627Z,1008.34
2023-05-20T04:04:06.812Z,1008.35
2023-05-20T04:05:11.212Z,1008.29
2023-05-20T04:06:06.385Z,1008.27
2023-05-20T04:07:07.535Z,1008.37
2023-05-20T04:08:06.678Z,1008.37
2023-05-20T04:09:06.776Z,1008.35
2023-05-20T04:10:06.964Z,1008.34
2023-05-20T04:11:09.108Z,1008.35
2023-05-20T04:12:09.962Z,1008.35
2023-05-20T04:13:08.522Z,1008.33
2023-05-20T04:14:07.661Z,1008.34
2023-05-20T04:15:07.821Z,1008.32
2023-05-20T04:16:08.019Z,1008.32
2023-05-20T04:17:09.360Z,1008.33
2023-05-20T04:18:09.663Z,1008.33
2023-05-20T04:19:10.739Z,1008.33
2023-05-20T04:20:11.453Z,1008.37
2023-05-20T04:21:09.134Z,1008.33
2023-05-20T04:22:11.748Z,1008.31
2023-05-20T04:23:09.535Z,1008.36
2023-05-20T04:24:14.620Z,1008.34
2023-05-20T04:25:12.312Z,1008.32
2023-05-20T04:26:09.907Z,1008.29
2023-05-20T04:27:12.522Z,1008.35
2023-05-20T04:28:10.223Z,1008.35
2023-05-20T04:29:13.777Z,1008.30
2023-05-20T04:30:10.417Z,1008.32
2023-05-20T04:31:10.568Z,1008.37
2023-05-20T04:32:12.760Z,1008.43
2023-05-20T04:33:13.417Z,1008.38
2023-05-20T04:34:11.055Z,1008.35
2023-05-20T04:35:13.118Z,1008.29
2023-05-20T04:36:13.725Z,1008.31
2023-05-20T04:37:13.317Z,1008.31
2023-05-20T04:38:12.359Z,1008.32
2023-05-20T04:39:14.007Z,1008.26
2023-05-20T04:40:11.724Z,1008.32
2023-05-20T04:41:11.877Z,1008.30
2023-05-20T04:42:14.519Z,1008.34
2023-05-20T04:43:12.994Z,1008.35
2023-05-20T04:44:13.519Z,1008.38
2023-05-20T04:45:13.124Z,1008.32
2023-05-20T04:46:14.796Z,1008.35
2023-05-20T04:47:14.388Z,1008.37
2023-05-20T04:48:13.383Z,1008.38
2023-05-20T04:49:13.648Z,1008.35
2023-05-20T04:50:14.767Z,1008.37
2023-05-20T04:51:13.407Z,1008.34
2023-05-20T04:52:15.993Z,1008.35
2023-05-20T04:53:13.598Z,1008.34
2023-05-20T04:54:16.260Z,1008.36
2023-05-20T04:55:15.678Z,1008.33
2023-05-20T04:56:16.726Z,1008.31
2023-05-20T04:57:16.920Z,1008.31
2023-05-20T04:58:14.577Z,1008.31
2023-05-20T04:59:14.742Z,1008.37
2023-05-20T05:00:14.953Z,1008.28
2023-05-20T05:01:16.605Z,1008.27
2023-05-20T05:02:18.278Z,1008.25
2023-05-20T05:03:15.423Z,1008.26
2023-05-20T05:04:15.616Z,1008.25
2023-05-20T05:05:31.919Z,1008.24
2023-05-20T05:06:16.125Z,1008.27
2023-05-20T05:07:18.718Z,1008.24
2023-05-20T05:08:16.329Z,1008.29
2023-05-20T05:09:18.972Z,1008.29
2023-05-20T05:10:17.500Z,1008.32
2023-05-20T05:11:18.637Z,1008.31
2023-05-20T05:12:19.290Z,1008.35
2023-05-20T05:13:19.400Z,1008.34
2023-05-20T05:14:16.993Z,1008.24
2023-05-20T05:15:17.196Z,1008.35
2023-05-20T05:16:17.600Z,1008.39
2023-05-20T05:17:17.288Z,1008.36
2023-05-20T05:18:18.047Z,1008.33
2023-05-20T05:19:18.588Z,1008.37
2023-05-20T05:20:17.741Z,1008.38
2023-05-20T05:21:17.894Z,1008.37
2023-05-20T05:22:20.023Z,1008.35
2023-05-20T05:23:18.895Z,1008.31
2023-05-20T05:24:18.510Z,1008.34
2023-05-20T05:25:21.196Z,1008.38
2023-05-20T05:26:19.647Z,1008.33
2023-05-20T05:27:18.868Z,1008.37
2023-05-20T05:28:18.960Z,1008.38
2023-05-20T05:29:19.100Z,1008.46
2023-05-20T05:30:20.068Z,1008.41
2023-05-20T05:31:19.179Z,1008.40
2023-05-20T05:32:20.092Z,1008.41
2023-05-20T05:33:19.745Z,1008.39
2023-05-20T05:34:20.672Z,1008.39
2023-05-20T05:35:21.130Z,1008.36
2023-05-20T05:36:20.469Z,1008.28
2023-05-20T05:37:20.593Z,1008.29
2023-05-20T05:38:23.370Z,1008.29
2023-05-20T05:39:20.988Z,1008.29
2023-05-20T05:40:23.149Z,1008.23
2023-05-20T05:41:21.766Z,1008.25
2023-05-20T05:42:23.711Z,1008.26
2023-05-20T05:43:21.838Z,1008.23
2023-05-20T05:44:24.544Z,1008.23
2023-05-20T05:45:23.606Z,1008.22
2023-05-20T05:46:22.310Z,1008.31
2023-05-20T05:47:22.561Z,1008.33
2023-05-20T05:48:24.255Z,1008.29
2023-05-20T05:49:23.821Z,1008.27
2023-05-20T05:50:24.417Z,1008.29
2023-05-20T05:51:24.091Z,1008.30
2023-05-20T05:52:23.231Z,1008.26
2023-05-20T05:53:24.213Z,1008.33
2023-05-20T05:54:25.551Z,1008.32
2023-05-20T05:55:23.701Z,1008.33
2023-05-20T05:56:25.820Z,1008.27
2023-05-20T05:57:23.963Z,1008.32
2023-05-20T05:58:25.547Z,1008.30
2023-05-20T05:59:25.188Z,1008.29
2023-05-20T06:00:24.912Z,1008.28
2023-05-20T06:01:24.556Z,1008.29
2023-05-20T06:02:25.721Z,1008.29
2023-05-20T06:03:25.133Z,1008.34
2023-05-20T06:04:26.417Z,1008.31
2023-05-20T06:05:29.804Z,1008.32
2023-05-20T06:06:25.645Z,1008.36
2023-05-20T06:07:27.867Z,1008.34
2023-05-20T06:08:27.378Z,1008.38
2023-05-20T06:09:27.545Z,1008.40
2023-05-20T06:10:26.229Z,1008.38
2023-05-20T06:11:26.339Z,1008.39
2023-05-20T06:12:27.241Z,1008.37
2023-05-20T06:13:27.709Z,1008.31
2023-05-20T06:14:28.871Z,1008.28
2023-05-20T06:15:26.992Z,1008.28
2023-05-20T06:16:28.424Z,1008.35
2023-05-20T06:17:27.237Z,1008.31
2023-05-20T06:18:27.369Z,1008.31
2023-05-20T06:19:27.836Z,1008.27
2023-05-20T06:20:28.079Z,1008.35
2023-05-20T06:21:27.912Z,1008.38
2023-05-20T06:22:30.503Z,1008.31
2023-05-20T06:23:28.166Z,1008.35
2023-05-20T06:24:30.331Z,1008.38
2023-05-20T06:25:29.368Z,1008.34
2023-05-20T06:26:28.515Z,1008.30
2023-05-20T06:27:28.621Z,1008.31
2023-05-20T06:28:29.401Z,1008.37
2023-05-20T06:29:29.026Z,1008.33
2023-05-20T06:30:31.339Z,1008.33
2023-05-20T06:31:31.112Z,1008.32
2023-05-20T06:32:32.285Z,1008.32
2023-05-20T06:33:29.514Z,1008.26
2023-05-20T06:34:36.331Z,1008.25
2023-05-20T06:35:30.944Z,1008.29
2023-05-20T06:36:33.051Z,1008.20
2023-05-20T06:37:32.080Z,1008.22
2023-05-20T06:38:32.415Z,1008.22
2023-05-20T06:39:31.015Z,1008.15
2023-05-20T06:40:33.443Z,1008.24
2023-05-20T06:41:32.382Z,1008.15
2023-05-20T06:42:33.960Z,1008.21
2023-05-20T06:43:32.966Z,1008.16
2023-05-20T06:44:33.151Z,1008.16
2023-05-20T06:45:33.004Z,1008.18
2023-05-20T06:46:32.317Z,1008.20
2023-05-20T06:47:33.411Z,1008.23
2023-05-20T06:48:33.518Z,1008.24
2023-05-20T06:49:34.612Z,1008.19
2023-05-20T06:50:34.664Z,1008.21
2023-05-20T06:51:44.433Z,1008.21
2023-05-20T06:52:33.048Z,1008.16
2023-05-20T06:53:35.821Z,1008.11
2023-05-20T06:54:35.389Z,1008.12
2023-05-20T06:55:34.456Z,1008.16
2023-05-20T06:56:34.466Z,1008.14
2023-05-20T06:57:34.977Z,1008.20
2023-05-20T06:58:34.968Z,1008.14
2023-05-20T06:59:34.052Z,1008.17
2023-05-20T07:00:36.628Z,1008.11
2023-05-20T07:01:35.692Z,1008.13
2023-05-20T07:02:35.301Z,1008.07
2023-05-20T07:03:34.498Z,1008.11
2023-05-20T07:05:36.088Z,1008.05
2023-05-20T07:06:38.671Z,1008.04
2023-05-20T07:07:35.478Z,1007.99
2023-05-20T07:08:35.635Z,1008.02
2023-05-20T07:09:35.751Z,1007.91
2023-05-20T07:10:35.965Z,1007.91
2023-05-20T07:11:36.150Z,1007.92
2023-05-20T07:12:37.821Z,1007.87
2023-05-20T07:13:38.418Z,1007.97
2023-05-20T07:14:37.499Z,1007.94
2023-05-20T07:15:37.821Z,1007.96
2023-05-20T07:16:36.983Z,1007.93
2023-05-20T07:17:37.881Z,1007.94
2023-05-20T07:18:37.535Z,1007.91
2023-05-20T07:19:38.613Z,1007.91
2023-05-20T07:20:39.615Z,1007.90
2023-05-20T07:21:37.885Z,1007.91
2023-05-20T07:22:39.007Z,1007.91
2023-05-20T07:23:40.074Z,1007.88
2023-05-20T07:24:38.189Z,1007.92
2023-05-20T07:25:38.319Z,1007.87
2023-05-20T07:26:38.733Z,1007.84
2023-05-20T07:27:39.819Z,1007.84
2023-05-20T07:28:38.547Z,1007.83
2023-05-20T07:29:40.578Z,1007.78
2023-05-20T07:30:38.808Z,1007.80
2023-05-20T07:31:39.957Z,1007.77
2023-05-20T07:32:39.160Z,1007.80
2023-05-20T07:33:42.399Z,1007.78
2023-05-20T07:34:48.411Z,1007.76
2023-05-20T07:35:39.532Z,1007.72
2023-05-20T07:36:41.337Z,1007.75
2023-05-20T07:37:39.926Z,1007.75
2023-05-20T07:38:41.264Z,1007.70
2023-05-20T07:39:40.133Z,1007.72
2023-05-20T07:40:42.266Z,1007.73
2023-05-20T07:41:40.557Z,1007.73
2023-05-20T07:42:42.997Z,1007.65
2023-05-20T07:43:44.462Z,1007.65
2023-05-20T07:44:42.572Z,1007.71
2023-05-20T07:45:40.731Z,1007.71
2023-05-20T07:46:42.937Z,1007.71
2023-05-20T07:47:41.996Z,1007.75
2023-05-20T07:48:41.725Z,1007.79
2023-05-20T07:49:41.360Z,1007.79
2023-05-20T07:50:41.557Z,1007.79
2023-05-20T07:51:41.733Z,1007.81
2023-05-20T07:52:55.163Z,1007.77
2023-05-20T07:53:41.878Z,1007.84
2023-05-20T07:54:42.054Z,1007.82
2023-05-20T07:55:42.245Z,1007.75
2023-05-20T07:56:42.443Z,1007.74
2023-05-20T07:57:44.773Z,1007.77
2023-05-20T07:58:45.431Z,1007.74
2023-05-20T07:59:43.395Z,1007.70
2023-05-20T08:00:42.611Z,1007.71
2023-05-20T08:01:42.779Z,1007.69
2023-05-20T08:02:45.792Z,1007.79
2023-05-20T08:03:43.060Z,1007.74
2023-05-20T08:05:44.342Z,1007.74
2023-05-20T08:06:45.637Z,1007.80
2023-05-20T08:07:44.335Z,1007.76
2023-05-20T08:08:50.592Z,1007.75
2023-05-20T08:09:45.232Z,1007.76
2023-05-20T08:10:46.903Z,1007.74
2023-05-20T08:11:45.789Z,1007.75
2023-05-20T08:12:46.972Z,1007.73
2023-05-20T08:13:45.108Z,1007.72
2023-05-20T08:14:45.868Z,1007.71
2023-05-20T08:15:47.951Z,1007.68
2023-05-20T08:16:45.591Z,1007.63
2023-05-20T08:17:45.709Z,1007.65
2023-05-20T08:18:45.983Z,1007.65
2023-05-20T08:19:49.069Z,1007.65
2023-05-20T08:20:46.963Z,1007.68
2023-05-20T08:21:47.393Z,1007.69
2023-05-20T08:22:48.830Z,1007.71
2023-05-20T08:23:46.961Z,1007.67
2023-05-20T08:24:47.088Z,1007.69
2023-05-20T08:25:47.924Z,1007.64
2023-05-20T08:26:49.603Z,1007.58
2023-05-20T08:27:49.740Z,1007.58
2023-05-20T08:28:48.753Z,1007.57
2023-05-20T08:29:50.515Z,1007.58
2023-05-20T08:30:49.263Z,1007.57
2023-05-20T08:31:49.874Z,1007.63
2023-05-20T08:32:49.267Z,1007.60
2023-05-20T08:33:51.473Z,1007.64
2023-05-20T08:35:49.200Z,1007.55
2023-05-20T08:36:50.047Z,1007.55
2023-05-20T08:37:50.453Z,1007.53
2023-05-20T08:38:51.907Z,1007.52
2023-05-20T08:39:50.808Z,1007.48
2023-05-20T08:40:52.345Z,1007.48
2023-05-20T08:41:52.012Z,1007.44
2023-05-20T08:42:52.620Z,1007.39
2023-05-20T08:43:51.391Z,1007.44
2023-05-20T08:44:53.250Z,1007.43
2023-05-20T08:45:53.173Z,1007.37
2023-05-20T08:46:53.427Z,1007.40
2023-05-20T08:47:52.641Z,1007.37
2023-05-20T08:48:51.894Z,1007.34
2023-05-20T08:49:54.983Z,1007.29
2023-05-20T08:50:52.181Z,1007.37
2023-05-20T08:51:53.742Z,1007.35
2023-05-20T08:52:52.315Z,1007.35
2023-05-20T08:53:52.451Z,1007.42
2023-05-20T08:54:52.550Z,1007.44
2023-05-20T08:55:52.633Z,1007.42
2023-05-20T08:56:52.740Z,1007.45
2023-05-20T08:57:52.947Z,1007.41
2023-05-20T08:58:54.453Z,1007.43
2023-05-20T08:59:54.151Z,1007.43
2023-05-20T09:00:55.808Z,1007.39
2023-05-20T09:01:53.569Z,1007.43
2023-05-20T09:02:53.665Z,1007.40
2023-05-20T09:03:55.137Z,1007.41
2023-05-20T09:05:56.378Z,1007.46
2023-05-20T09:06:55.373Z,1007.38
2023-05-20T09:07:53.984Z,1007.41
2023-05-20T09:08:55.147Z,1007.42
2023-05-20T09:09:54.258Z,1007.36
2023-05-20T09:10:57.534Z,1007.36
2023-05-20T09:11:55.863Z,1007.34
2023-05-20T09:12:54.948Z,1007.31
2023-05-20T09:13:56.013Z,1007.32
2023-05-20T09:14:55.855Z,1007.26
2023-05-20T09:15:55.516Z,1007.25
2023-05-20T09:16:57.213Z,1007.28
2023-05-20T09:17:57.829Z,1007.26
2023-05-20T09:18:56.091Z,1007.20
2023-05-20T09:19:57.756Z,1007.22
2023-05-20T09:20:57.348Z,1007.20
2023-05-20T09:21:59.901Z,1007.26
2023-05-20T09:22:59.148Z,1007.23
2023-05-20T09:23:57.633Z,1007.26
2023-05-20T09:25:01.069Z,1007.35
2023-05-20T09:25:56.678Z,1007.26
2023-05-20T09:26:57.009Z,1007.20
2023-05-20T09:27:58.518Z,1007.23
2023-05-20T09:28:57.315Z,1007.19
2023-05-20T09:29:58.342Z,1007.22
2023-05-20T09:30:58.964Z,1007.29
2023-05-20T09:31:57.628Z,1007.23
2023-05-20T09:33:02.470Z,1007.21
2023-05-20T09:33:59.193Z,1007.26
2023-05-20T09:35:04.875Z,1007.28
2023-05-20T09:35:59.376Z,1007.23
2023-05-20T09:36:59.255Z,1007.24
2023-05-20T09:38:00.832Z,1007.27
2023-05-20T09:38:58.976Z,1007.22
2023-05-20T09:39:59.859Z,1007.19
2023-05-20T09:40:59.496Z,1007.25
2023-05-20T09:42:00.263Z,1007.17
2023-05-20T09:43:03.408Z,1007.16
2023-05-20T09:44:01.997Z,1007.16
2023-05-20T09:45:05.121Z,1007.20
2023-05-20T09:46:01.703Z,1007.27
2023-05-20T09:47:11.605Z,1007.23
2023-05-20T09:48:01.102Z,1007.26
2023-05-20T09:49:05.271Z,1007.16
2023-05-20T09:50:00.872Z,1007.21
2023-05-20T09:51:03.453Z,1007.19
2023-05-20T09:52:01.066Z,1007.23
2023-05-20T09:53:02.794Z,1007.19
2023-05-20T09:54:01.408Z,1007.13
2023-05-20T09:55:03.555Z,1007.11
2023-05-20T09:56:04.816Z,1007.17
2023-05-20T09:57:08.505Z,1007.09
2023-05-20T09:58:05.249Z,1007.02
2023-05-20T09:59:02.423Z,1007.08
2023-05-20T10:00:03.318Z,1007.02
2023-05-20T10:01:02.958Z,1007.06
2023-05-20T10:02:03.429Z,1007.11
2023-05-20T10:03:04.591Z,1007.09
2023-05-20T10:04:05.198Z,1007.14
2023-05-20T10:05:08.634Z,1007.21
2023-05-20T10:06:04.429Z,1007.20
2023-05-20T10:07:05.490Z,1007.19
2023-05-20T10:08:04.540Z,1007.15
2023-05-20T10:09:06.593Z,1007.15
2023-05-20T10:10:04.709Z,1007.25
2023-05-20T10:11:04.827Z,1007.25
2023-05-20T10:12:06.335Z,1007.27
2023-05-20T10:13:04.928Z,1007.32
2023-05-20T10:14:08.057Z,1007.28
2023-05-20T10:15:06.243Z,1007.31
2023-05-20T10:16:05.513Z,1007.27
2023-05-20T10:17:06.557Z,1007.27
2023-05-20T10:18:05.863Z,1007.36
2023-05-20T10:19:06.123Z,1007.27
2023-05-20T10:20:06.952Z,1007.29
2023-05-20T10:21:07.733Z,1007.27
2023-05-20T10:22:07.602Z,1007.25
2023-05-20T10:23:07.225Z,1007.29
2023-05-20T10:24:08.662Z,1007.31
2023-05-20T10:25:07.343Z,1007.27
2023-05-20T10:26:09.933Z,1007.30
2023-05-20T10:27:09.426Z,1007.28
2023-05-20T10:28:07.545Z,1007.25
2023-05-20T10:29:10.296Z,1007.24
2023-05-20T10:30:08.605Z,1007.18
2023-05-20T10:31:07.812Z,1007.29
2023-05-20T10:32:09.486Z,1007.22
2023-05-20T10:33:08.173Z,1007.16
2023-05-20T10:34:10.558Z,1007.12
2023-05-20T10:35:09.901Z,1007.12
2023-05-20T10:36:12.507Z,1007.12
2023-05-20T10:37:09.242Z,1007.09
2023-05-20T10:38:09.366Z,1007.06
2023-05-20T10:39:11.076Z,1007.07
2023-05-20T10:40:10.482Z,1007.07
2023-05-20T10:41:11.061Z,1007.04
2023-05-20T10:42:10.530Z,1007.06
2023-05-20T10:43:11.056Z,1007.04
2023-05-20T10:44:10.220Z,1006.99
2023-05-20T10:45:12.351Z,1007.06
2023-05-20T10:46:21.587Z,1007.06
2023-05-20T10:48:10.796Z,1007.06
2023-05-20T10:49:12.980Z,1007.07
2023-05-20T10:50:11.288Z,1007.02
2023-05-20T10:51:12.339Z,1007.07
2023-05-20T10:52:11.407Z,1007.02
2023-05-20T10:53:18.622Z,1007.03
2023-05-20T10:54:11.869Z,1007.02
2023-05-20T10:55:12.945Z,1007.04
2023-05-20T10:56:12.102Z,1007.03
2023-05-20T10:57:13.696Z,1007.02
2023-05-20T10:58:13.939Z,1007.02
2023-05-20T10:59:12.574Z,1007.09
2023-05-20T11:00:13.283Z,1007.00
2023-05-20T11:01:14.131Z,1007.12
2023-05-20T11:02:17.825Z,1007.06
2023-05-20T11:03:13.263Z,1007.04
2023-05-20T11:04:14.112Z,1006.99
2023-05-20T11:05:18.364Z,1006.97
2023-05-20T11:06:15.355Z,1006.96
2023-05-20T11:07:14.602Z,1006.93
2023-05-20T11:08:27.832Z,1006.98
2023-05-20T11:09:13.957Z,1006.95
2023-05-20T11:10:16.168Z,1006.95
2023-05-20T11:11:14.300Z,1006.90
2023-05-20T11:12:16.200Z,1006.87
2023-05-20T11:13:14.412Z,1006.85
2023-05-20T11:14:16.508Z,1006.89
2023-05-20T11:15:14.761Z,1006.92
2023-05-20T11:16:15.779Z,1006.86
2023-05-20T11:17:16.357Z,1006.83
2023-05-20T11:18:17.818Z,1006.80
2023-05-20T11:19:15.312Z,1006.74
2023-05-20T11:20:16.408Z,1006.74
2023-05-20T11:21:16.282Z,1006.70
2023-05-20T11:22:17.894Z,1006.63
2023-05-20T11:23:17.951Z,1006.63
2023-05-20T11:24:17.967Z,1006.57
2023-05-20T11:25:16.918Z,1006.55
2023-05-20T11:26:18.403Z,1006.57
2023-05-20T11:27:17.432Z,1006.51
2023-05-20T11:28:17.054Z,1006.51
2023-05-20T11:29:17.194Z,1006.55
2023-05-20T11:30:16.936Z,1006.55
2023-05-20T11:31:16.568Z,1006.56
2023-05-20T11:32:16.713Z,1006.54
2023-05-20T11:33:17.693Z,1006.61
2023-05-20T11:34:17.627Z,1006.66
2023-05-20T11:35:17.514Z,1006.57
2023-05-20T11:36:27.627Z,1006.65
2023-05-20T11:37:19.422Z,1006.58
2023-05-20T11:38:17.571Z,1006.66
2023-05-20T11:39:18.650Z,1006.68
2023-05-20T11:40:17.728Z,1006.60
2023-05-20T11:41:17.840Z,1006.63
2023-05-20T11:42:17.998Z,1006.59
2023-05-20T11:43:19.568Z,1006.67
2023-05-20T11:44:19.117Z,1006.62
2023-05-20T11:45:18.229Z,1006.65
2023-05-20T11:46:18.643Z,1006.65
2023-05-20T11:47:22.640Z,1006.64
2023-05-20T11:48:18.364Z,1006.70
2023-05-20T11:49:18.553Z,1006.75
2023-05-20T11:50:19.632Z,1006.70
2023-05-20T11:51:18.747Z,1006.69
2023-05-20T11:52:19.044Z,1006.66
2023-05-20T11:53:20.653Z,1006.67
2023-05-20T11:54:19.554Z,1006.69
2023-05-20T11:55:21.612Z,1006.67
2023-05-20T11:56:19.768Z,1006.70
2023-05-20T11:57:19.911Z,1006.65
2023-05-20T11:58:21.464Z,1006.67
2023-05-20T11:59:20.553Z,1006.55
2023-05-20T12:00:20.198Z,1006.54
2023-05-20T12:01:22.898Z,1006.51
2023-05-20T12:02:20.551Z,1006.42
2023-05-20T12:03:21.618Z,1006.39
2023-05-20T12:04:22.563Z,1006.42
2023-05-20T12:05:22.836Z,1006.40
2023-05-20T12:06:22.190Z,1006.35
2023-05-20T12:07:22.241Z,1006.41
2023-05-20T12:08:21.835Z,1006.45
2023-05-20T12:09:21.958Z,1006.42
2023-05-20T12:10:22.115Z,1006.40
2023-05-20T12:11:22.201Z,1006.40
2023-05-20T12:12:22.421Z,1006.32
2023-05-20T12:13:23.202Z,1006.37